Time;durP1;ratioP1;P1;durP2;ratioP2;P2;SDS_P1;SDS_P2;PMS_P1;PMS_P2;Temp;Humidity;BMP_temperature;BMP_pressure;BME280_temperature;BME280_humidity;BME280_pressure;Samples;Min_cycle;Max_cycle;Signal;HPM_P1;HPM_P2
2024/01/13 00:02:15;;;;;;;17.87;16.97;;;0.10;99.90;;;;;;5116375;27;20664;-62
2024/01/13 00:04:41;;;;;;;17.00;16.10;;;0.10;99.90;;;;;;5108052;28;20221;-61
2024/01/13 00:07:08;;;;;;;17.23;16.30;;;0.10;99.90;;;;;;5108013;28;21205;-64
2024/01/13 00:09:35;;;;;;;17.87;16.93;;;0.10;99.90;;;;;;5117792;28;20502;-63
2024/01/13 00:12:02;;;;;;;17.27;16.38;;;0.10;99.90;;;;;;5112750;28;20678;-64
2024/01/13 00:14:29;;;;;;;18.23;17.30;;;0.10;99.90;;;;;;5112009;28;20221;-62
2024/01/13 00:16:56;;;;;;;18.77;17.70;;;0.00;99.90;;;;;;5112179;28;20217;-62
2024/01/13 00:19:23;;;;;;;17.97;17.00;;;0.00;99.90;;;;;;5117659;28;20202;-61
2024/01/13 00:21:50;;;;;;;18.47;17.47;;;0.00;99.90;;;;;;5134833;27;20313;-61
2024/01/13 00:24:16;;;;;;;18.77;17.77;;;-0.10;99.90;;;;;;5139782;27;20224;-63
2024/01/13 00:26:43;;;;;;;18.40;17.37;;;-0.10;99.90;;;;;;5129337;27;20201;-62
2024/01/13 00:29:11;;;;;;;17.70;16.80;;;-0.20;99.90;;;;;;5129169;27;20197;-63
2024/01/13 00:31:37;;;;;;;16.30;15.50;;;-0.30;99.90;;;;;;5131446;27;20206;-62
2024/01/13 00:34:04;;;;;;;18.23;17.27;;;-0.30;99.90;;;;;;5140119;27;20228;-62
2024/01/13 00:36:32;;;;;;;17.53;16.53;;;-0.30;99.90;;;;;;5138219;27;20194;-61
2024/01/13 00:38:59;;;;;;;17.87;16.87;;;-0.30;99.90;;;;;;5135342;27;20230;-61
2024/01/13 00:41:26;;;;;;;18.23;17.23;;;-0.30;99.90;;;;;;5139564;27;20202;-62
2024/01/13 00:43:52;;;;;;;17.40;16.60;;;-0.30;99.90;;;;;;5138279;27;20226;-62
2024/01/13 00:46:19;;;;;;;18.08;17.08;;;-0.40;99.90;;;;;;5132332;27;20205;-62
2024/01/13 00:48:46;;;;;;;17.00;16.10;;;-0.30;99.90;;;;;;5133563;27;20198;-63
2024/01/13 00:51:13;;;;;;;17.58;16.67;;;-0.30;99.90;;;;;;5128746;27;20202;-62
2024/01/13 00:53:41;;;;;;;17.20;16.20;;;-0.30;99.90;;;;;;5129949;27;20221;-63
2024/01/13 00:56:07;;;;;;;18.03;17.03;;;-0.30;99.90;;;;;;5122363;27;20206;-64
2024/01/13 00:58:35;;;;;;;16.80;15.90;;;-0.30;99.90;;;;;;5117425;27;20222;-62
2024/01/13 01:01:03;;;;;;;17.33;16.43;;;-0.40;99.90;;;;;;5117906;27;20212;-63
2024/01/13 01:03:30;;;;;;;18.17;17.17;;;-0.40;99.90;;;;;;5109466;27;20275;-63
2024/01/13 01:05:58;;;;;;;17.93;16.93;;;-0.40;99.90;;;;;;5119480;27;20213;-62
2024/01/13 01:08:25;;;;;;;16.23;15.43;;;-0.40;99.90;;;;;;5113568;27;20191;-64
2024/01/13 01:10:53;;;;;;;17.80;16.90;;;-0.40;99.90;;;;;;5118705;27;20205;-63
2024/01/13 01:13:20;;;;;;;17.77;16.87;;;-0.40;99.90;;;;;;5111790;27;20224;-63
2024/01/13 01:15:47;;;;;;;17.20;16.30;;;-0.40;99.90;;;;;;5120145;27;20202;-63
2024/01/13 01:18:13;;;;;;;17.77;16.77;;;-0.40;99.90;;;;;;5112805;27;20220;-62
2024/01/13 01:20:40;;;;;;;17.20;16.30;;;-0.40;99.90;;;;;;5132929;27;20205;-62
2024/01/13 01:23:07;;;;;;;18.00;17.07;;;-0.40;99.90;;;;;;5134806;27;20219;-62
2024/01/13 01:25:33;;;;;;;17.17;16.27;;;-0.40;99.90;;;;;;5136723;27;20206;-61
2024/01/13 01:28:01;;;;;;;18.90;17.90;;;-0.40;99.90;;;;;;5133314;27;20190;-62
2024/01/13 01:30:28;;;;;;;17.23;16.33;;;-0.50;99.90;;;;;;5139689;27;20206;-63
2024/01/13 01:32:55;;;;;;;17.30;16.40;;;-0.50;99.90;;;;;;5125837;27;20226;-63
2024/01/13 01:35:21;;;;;;;17.77;16.87;;;-0.50;99.90;;;;;;5113998;27;20206;-62
2024/01/13 01:37:48;;;;;;;15.75;14.95;;;-0.40;99.90;;;;;;5117037;27;20197;-63
2024/01/13 01:40:16;;;;;;;16.80;15.93;;;-0.40;99.90;;;;;;5121710;27;20248;-63
2024/01/13 01:42:43;;;;;;;15.83;15.03;;;-0.40;99.90;;;;;;5115794;27;20255;-60
2024/01/13 01:45:11;;;;;;;16.17;15.37;;;-0.50;99.90;;;;;;5119147;27;20234;-62
2024/01/13 01:47:40;;;;;;;16.95;16.05;;;-0.40;99.90;;;;;;5114868;27;20209;-63
2024/01/13 01:50:09;;;;;;;17.63;16.73;;;-0.30;99.90;;;;;;5120545;27;20216;-62
2024/01/13 01:52:37;;;;;;;17.02;16.13;;;-0.30;99.90;;;;;;5124441;27;20213;-62
2024/01/13 01:55:04;;;;;;;16.43;15.63;;;-0.40;99.90;;;;;;5111396;27;20243;-62
2024/01/13 01:57:32;;;;;;;15.83;15.00;;;-0.40;99.90;;;;;;5114564;27;20205;-62
2024/01/13 01:59:59;;;;;;;16.70;15.90;;;-0.40;99.90;;;;;;5112748;27;20300;-61
2024/01/13 02:02:27;;;;;;;16.60;15.80;;;-0.30;99.90;;;;;;5121524;27;20198;-63
2024/01/13 02:04:55;;;;;;;16.60;15.80;;;-0.40;99.90;;;;;;5119564;27;20232;-62
2024/01/13 02:07:22;;;;;;;16.10;15.30;;;-0.40;99.90;;;;;;5116712;27;20280;-62
2024/01/13 02:09:48;;;;;;;17.23;16.33;;;-0.40;99.90;;;;;;5114459;27;20205;-62
2024/01/13 02:12:15;;;;;;;17.52;16.63;;;-0.50;99.90;;;;;;5113650;27;20197;-60
2024/01/13 02:14:42;;;;;;;17.17;16.27;;;-0.50;99.90;;;;;;5123287;27;20696;-61
2024/01/13 02:17:09;;;;;;;18.17;17.17;;;-0.50;99.90;;;;;;5108751;27;20214;-62
2024/01/13 02:19:37;;;;;;;16.58;15.68;;;-0.60;99.90;;;;;;5116004;27;20225;-62
2024/01/13 02:22:06;;;;;;;17.60;16.67;;;-0.60;99.90;;;;;;5114249;27;20198;-60
2024/01/13 02:24:32;;;;;;;16.23;15.43;;;-0.60;99.90;;;;;;5113170;27;20226;-62
2024/01/13 02:26:59;;;;;;;19.05;17.95;;;-0.70;99.90;;;;;;5119790;27;20202;-60
2024/01/13 02:29:26;;;;;;;16.73;15.83;;;-0.70;99.90;;;;;;5126076;27;20197;-60
2024/01/13 02:31:52;;;;;;;15.80;14.90;;;-0.70;99.90;;;;;;5126697;27;20206;-60
2024/01/13 02:34:19;;;;;;;15.27;14.47;;;-0.70;99.90;;;;;;5120604;27;20228;-62
2024/01/13 02:36:46;;;;;;;16.93;16.03;;;-0.70;99.90;;;;;;5132356;27;20202;-62
2024/01/13 02:39:14;;;;;;;15.23;14.43;;;-0.60;99.90;;;;;;5122935;28;20222;-60
2024/01/13 02:41:42;;;;;;;15.23;14.43;;;-0.60;99.90;;;;;;5124355;27;20210;-62
2024/01/13 02:44:09;;;;;;;17.53;16.53;;;-0.50;99.90;;;;;;5115725;27;20222;-60
2024/01/13 02:46:35;;;;;;;16.37;15.47;;;-0.50;99.90;;;;;;5124820;27;20293;-61
2024/01/13 02:49:03;;;;;;;16.38;15.50;;;-0.50;99.90;;;;;;5107858;28;20194;-60
2024/01/13 02:51:30;;;;;;;16.03;15.23;;;-0.50;99.90;;;;;;5119906;27;20209;-62
2024/01/13 02:53:56;;;;;;;16.60;15.80;;;-0.50;99.90;;;;;;5116866;27;20239;-63
2024/01/13 02:56:25;;;;;;;15.53;14.73;;;-0.50;99.90;;;;;;5125956;27;20201;-64
2024/01/13 02:58:51;;;;;;;15.60;14.90;;;-0.50;99.90;;;;;;5106263;28;20682;-62
2024/01/13 03:01:18;;;;;;;15.83;15.00;;;-0.50;99.90;;;;;;5105862;27;20291;-62
2024/01/13 03:03:45;;;;;;;16.23;15.43;;;-0.50;99.90;;;;;;5112867;27;20324;-63
2024/01/13 03:06:12;;;;;;;15.63;14.83;;;-0.50;99.90;;;;;;5110144;27;20665;-62
2024/01/13 03:08:39;;;;;;;16.50;15.70;;;-0.40;99.90;;;;;;5113580;27;20206;-63
2024/01/13 03:11:06;;;;;;;16.23;15.43;;;-0.40;99.90;;;;;;5113474;27;20673;-63
2024/01/13 03:13:34;;;;;;;16.40;15.60;;;-0.40;99.90;;;;;;5113784;27;20226;-62
2024/01/13 03:16:00;;;;;;;15.75;15.00;;;-0.50;99.90;;;;;;5113629;27;20220;-60
2024/01/13 03:18:27;;;;;;;15.63;14.82;;;-0.50;99.90;;;;;;5107641;27;20211;-63
2024/01/13 03:20:54;;;;;;;15.93;15.13;;;-0.60;99.90;;;;;;5113250;27;20235;-63
2024/01/13 03:23:21;;;;;;;15.30;14.60;;;-0.50;99.90;;;;;;5108378;27;20229;-62
2024/01/13 03:25:48;;;;;;;16.10;15.30;;;-0.50;99.90;;;;;;5112203;27;20197;-63
2024/01/13 03:28:15;;;;;;;16.00;15.20;;;-0.50;99.90;;;;;;5108269;28;20358;-63
2024/01/13 03:30:43;;;;;;;16.02;15.23;;;-0.50;99.90;;;;;;5114491;27;20202;-63
2024/01/13 03:33:09;;;;;;;16.13;15.33;;;-0.50;99.90;;;;;;5115446;27;20240;-64
2024/01/13 03:35:36;;;;;;;16.17;15.37;;;-0.40;99.90;;;;;;5116731;27;20241;-63
2024/01/13 03:38:03;;;;;;;16.43;15.60;;;-0.40;99.90;;;;;;5116230;27;20206;-63
2024/01/13 03:40:29;;;;;;;16.67;15.87;;;-0.40;99.90;;;;;;5124134;27;20213;-63
2024/01/13 03:42:56;;;;;;;16.47;15.67;;;-0.40;99.90;;;;;;5116408;27;20230;-64
2024/01/13 03:45:23;;;;;;;15.27;14.57;;;-0.40;99.90;;;;;;5119014;27;20207;-63
2024/01/13 03:47:51;;;;;;;15.57;14.77;;;-0.40;99.90;;;;;;5121250;27;20217;-61
2024/01/13 03:50:18;;;;;;;16.48;15.68;;;-0.40;99.90;;;;;;5118376;27;20206;-62
2024/01/13 03:52:44;;;;;;;16.40;15.60;;;-0.30;99.90;;;;;;5118832;28;20660;-63
2024/01/13 03:55:11;;;;;;;15.90;15.10;;;-0.30;99.90;;;;;;5120935;28;20202;-63
2024/01/13 03:57:38;;;;;;;17.03;16.13;;;-0.40;99.90;;;;;;5126762;27;20664;-63
2024/01/13 04:00:06;;;;;;;15.97;15.17;;;-0.40;99.90;;;;;;5119990;28;20226;-62
2024/01/13 04:02:33;;;;;;;17.03;16.23;;;-0.40;99.90;;;;;;5127307;27;20258;-62
2024/01/13 04:05:02;;;;;;;16.70;15.90;;;-0.50;99.90;;;;;;5111361;28;20737;-61
2024/01/13 04:07:28;;;;;;;16.17;15.37;;;-0.40;99.90;;;;;;5119372;28;20197;-61
2024/01/13 04:09:55;;;;;;;15.70;14.90;;;-0.50;99.90;;;;;;5113936;28;20202;-61
2024/01/13 04:12:22;;;;;;;16.23;15.43;;;-0.50;99.90;;;;;;5112486;28;20228;-64
2024/01/13 04:14:48;;;;;;;16.73;15.87;;;-0.50;99.90;;;;;;5112125;28;20225;-62
2024/01/13 04:17:15;;;;;;;17.95;17.02;;;-0.60;99.90;;;;;;5110286;28;20225;-64
2024/01/13 04:19:42;;;;;;;16.27;15.48;;;-0.60;99.90;;;;;;5113098;28;20230;-64
2024/01/13 04:22:10;;;;;;;16.92;16.05;;;-0.60;99.90;;;;;;5110049;28;20295;-63
2024/01/13 04:24:36;;;;;;;16.60;15.70;;;-0.60;99.90;;;;;;5113144;28;20229;-61
2024/01/13 04:27:03;;;;;;;16.73;15.83;;;-0.60;99.90;;;;;;5108362;28;20748;-63
2024/01/13 04:29:30;;;;;;;16.77;15.93;;;-0.60;99.90;;;;;;5112126;28;20204;-61
2024/01/13 04:31:57;;;;;;;16.97;16.07;;;-0.70;99.90;;;;;;5108980;28;20214;-64
2024/01/13 04:34:23;;;;;;;16.90;16.00;;;-0.80;99.90;;;;;;5121265;28;20579;-63
2024/01/13 04:36:50;;;;;;;16.77;15.77;;;-0.80;99.90;;;;;;5123915;28;20213;-61
2024/01/13 04:39:18;;;;;;;16.73;15.83;;;-0.80;99.90;;;;;;5116882;28;20570;-62
2024/01/13 04:41:45;;;;;;;15.73;14.93;;;-0.70;99.90;;;;;;5123512;28;20201;-63
2024/01/13 04:44:12;;;;;;;15.88;15.07;;;-0.70;99.90;;;;;;5120330;28;20224;-62
2024/01/13 04:46:39;;;;;;;15.33;14.57;;;-0.70;99.90;;;;;;5122183;28;20705;-62
2024/01/13 04:49:05;;;;;;;15.77;14.98;;;-0.70;99.90;;;;;;5109725;28;20214;-61
2024/01/13 04:51:32;;;;;;;15.53;14.73;;;-0.70;99.90;;;;;;5111764;28;20620;-62
2024/01/13 04:53:59;;;;;;;15.07;14.33;;;-0.60;99.90;;;;;;5110948;28;20226;-63
2024/01/13 04:56:27;;;;;;;15.60;14.80;;;-0.60;99.90;;;;;;5112156;28;20779;-62
2024/01/13 04:58:53;;;;;;;15.73;14.93;;;-0.60;99.90;;;;;;5110140;28;20217;-62
2024/01/13 05:01:20;;;;;;;17.13;16.13;;;-0.60;99.90;;;;;;5108485;28;20312;-62
2024/01/13 05:03:47;;;;;;;15.93;15.13;;;-0.70;99.90;;;;;;5116761;28;20238;-62
2024/01/13 05:06:15;;;;;;;15.75;14.95;;;-0.70;99.90;;;;;;5107448;28;20243;-62
2024/01/13 05:08:42;;;;;;;16.63;15.73;;;-0.70;99.90;;;;;;5113813;27;20209;-63
2024/01/13 05:11:09;;;;;;;16.40;15.57;;;-0.70;99.90;;;;;;5122423;27;20480;-63
2024/01/13 05:13:37;;;;;;;16.25;15.40;;;-0.70;99.90;;;;;;5118449;27;20233;-62
2024/01/13 05:16:04;;;;;;;15.70;14.90;;;-0.80;99.90;;;;;;5112641;27;20224;-63
2024/01/13 05:18:31;;;;;;;15.73;14.93;;;-0.80;99.90;;;;;;5119410;27;20217;-62
2024/01/13 05:20:58;;;;;;;15.00;14.25;;;-0.90;99.90;;;;;;5118939;27;20226;-64
2024/01/13 05:23:24;;;;;;;14.97;14.27;;;-0.90;99.90;;;;;;5120866;27;20217;-63
2024/01/13 05:25:51;;;;;;;14.75;13.95;;;-0.90;99.90;;;;;;5117269;27;20203;-61
2024/01/13 05:28:19;;;;;;;14.90;14.17;;;-0.90;99.90;;;;;;5116481;27;20212;-61
2024/01/13 05:30:47;;;;;;;14.50;13.80;;;-0.90;99.90;;;;;;5118887;27;20202;-64
2024/01/13 05:33:13;;;;;;;15.07;14.33;;;-0.90;99.90;;;;;;5110523;28;20221;-62
2024/01/13 05:35:40;;;;;;;14.77;14.02;;;-0.90;99.90;;;;;;5116456;27;20205;-62
2024/01/13 05:38:07;;;;;;;15.13;14.32;;;-0.80;99.90;;;;;;5110248;27;20205;-62
2024/01/13 05:40:34;;;;;;;15.77;14.97;;;-0.80;99.90;;;;;;5114834;27;20229;-63
2024/01/13 05:43:01;;;;;;;15.93;15.10;;;-0.90;99.90;;;;;;5118958;27;20659;-62
2024/01/13 05:45:28;;;;;;;15.65;14.85;;;-0.90;99.90;;;;;;5116897;27;20209;-63
2024/01/13 05:47:56;;;;;;;15.97;15.07;;;-0.80;99.90;;;;;;5115459;27;20198;-63
2024/01/13 05:50:22;;;;;;;15.63;14.83;;;-0.80;99.90;;;;;;5113983;27;20201;-63
2024/01/13 05:52:49;;;;;;;15.40;14.60;;;-0.90;99.90;;;;;;5115128;27;20209;-62
2024/01/13 05:55:16;;;;;;;15.90;15.00;;;-0.90;99.90;;;;;;5122083;27;20223;-62
2024/01/13 05:57:43;;;;;;;16.63;15.73;;;-0.90;99.90;;;;;;5115501;27;20197;-62
2024/01/13 06:00:10;;;;;;;15.30;14.50;;;-0.90;99.90;;;;;;5114187;27;20220;-63
2024/01/13 06:02:37;;;;;;;14.75;13.98;;;-0.90;99.90;;;;;;5115715;27;20585;-63
2024/01/13 06:05:06;;;;;;;16.75;15.85;;;-0.80;99.90;;;;;;5116547;27;20209;-62
2024/01/13 06:07:33;;;;;;;16.10;15.27;;;-0.90;99.90;;;;;;5122646;27;20206;-62
2024/01/13 06:09:59;;;;;;;14.63;13.93;;;-0.90;99.90;;;;;;5121561;27;20231;-63
2024/01/13 06:12:28;;;;;;;15.40;14.60;;;-0.80;99.90;;;;;;5117436;27;20282;-63
2024/01/13 06:14:55;;;;;;;16.10;15.20;;;-0.80;99.90;;;;;;5116414;27;20753;-62
2024/01/13 06:17:21;;;;;;;15.50;14.70;;;-0.80;99.90;;;;;;5125869;27;20210;-63
2024/01/13 06:19:48;;;;;;;15.70;14.90;;;-0.80;99.90;;;;;;5115499;27;20202;-63
2024/01/13 06:22:16;;;;;;;14.85;14.15;;;-0.70;99.90;;;;;;5112437;27;20531;-61
2024/01/13 06:24:43;;;;;;;16.03;15.23;;;-0.60;99.90;;;;;;5117351;27;20228;-64
2024/01/13 06:27:09;;;;;;;15.38;14.57;;;-0.60;99.90;;;;;;5111786;27;20206;-63
2024/01/13 06:29:36;;;;;;;15.80;15.00;;;-0.60;99.90;;;;;;5115064;27;20206;-63
2024/01/13 06:32:03;;;;;;;15.50;14.70;;;-0.60;99.90;;;;;;5113868;27;20667;-64
2024/01/13 06:34:30;;;;;;;14.88;14.07;;;-0.60;99.90;;;;;;5114208;27;20222;-63
2024/01/13 06:36:57;;;;;;;17.58;16.48;;;-0.60;99.90;;;;;;5115332;27;20241;-63
2024/01/13 06:39:25;;;;;;;16.55;15.68;;;-0.50;99.90;;;;;;5120443;27;20648;-63
2024/01/13 06:41:51;;;;;;;15.45;14.65;;;-0.50;99.90;;;;;;5117402;27;20230;-63
2024/01/13 06:44:18;;;;;;;15.87;15.07;;;-0.50;99.90;;;;;;5115451;27;20232;-64
2024/01/13 06:46:45;;;;;;;15.70;14.90;;;-0.50;99.90;;;;;;5117721;27;20210;-64
2024/01/13 06:49:11;;;;;;;15.80;15.00;;;-0.50;99.90;;;;;;5110632;27;20202;-64
2024/01/13 06:51:38;;;;;;;16.17;15.30;;;-0.50;99.90;;;;;;5110090;27;20203;-64
2024/01/13 06:54:05;;;;;;;15.87;15.07;;;-0.50;99.90;;;;;;5118217;27;20234;-64
2024/01/13 06:56:33;;;;;;;16.83;16.03;;;-0.60;99.90;;;;;;5115099;27;20214;-64
2024/01/13 06:59:00;;;;;;;15.07;14.27;;;-0.70;99.90;;;;;;5114310;27;20664;-63
2024/01/13 07:01:27;;;;;;;14.63;13.93;;;-0.80;99.90;;;;;;5112981;27;20222;-63
2024/01/13 07:03:53;;;;;;;15.80;15.00;;;-0.80;99.90;;;;;;5115652;27;20575;-64
2024/01/13 07:06:20;;;;;;;15.70;14.90;;;-0.80;99.90;;;;;;5115710;27;20198;-64
2024/01/13 07:08:47;;;;;;;15.77;14.97;;;-0.90;99.90;;;;;;5114081;27;20205;-64
2024/01/13 07:11:14;;;;;;;16.80;15.90;;;-0.90;99.90;;;;;;5118792;27;20197;-63
2024/01/13 07:13:43;;;;;;;15.02;14.23;;;-0.90;99.90;;;;;;5118956;27;20225;-65
2024/01/13 07:16:10;;;;;;;15.73;14.87;;;-1.00;99.90;;;;;;5117770;27;20657;-63
2024/01/13 07:18:37;;;;;;;15.70;14.90;;;-1.10;99.90;;;;;;5113289;27;20533;-64
2024/01/13 07:21:04;;;;;;;15.20;14.50;;;-1.10;99.90;;;;;;5114427;27;20225;-63
2024/01/13 07:23:31;;;;;;;15.83;14.97;;;-1.20;99.90;;;;;;5117382;27;20237;-63
2024/01/13 07:25:58;;;;;;;15.80;15.00;;;-1.20;99.90;;;;;;5114533;27;20210;-63
2024/01/13 07:28:25;;;;;;;15.80;14.97;;;-1.20;99.90;;;;;;5109143;27;20679;-63
2024/01/13 07:30:53;;;;;;;15.83;14.90;;;-1.20;99.90;;;;;;5125834;27;20216;-64
2024/01/13 07:33:20;;;;;;;15.82;15.00;;;-1.20;99.90;;;;;;5128809;27;20594;-64
2024/01/13 07:35:46;;;;;;;17.07;16.17;;;-1.20;99.90;;;;;;5128418;27;20283;-63
2024/01/13 07:38:13;;;;;;;15.85;14.95;;;-1.20;99.90;;;;;;5125652;27;20301;-63
2024/01/13 07:40:40;;;;;;;14.87;14.07;;;-1.10;99.90;;;;;;5119805;27;20222;-64
2024/01/13 07:43:07;;;;;;;15.50;14.65;;;-1.00;99.90;;;;;;5127669;27;20224;-64
2024/01/13 07:45:34;;;;;;;15.40;14.60;;;-1.00;99.90;;;;;;5123356;27;20201;-64
2024/01/13 07:48:02;;;;;;;17.03;16.03;;;-0.90;99.90;;;;;;5120949;27;20193;-64
2024/01/13 07:50:29;;;;;;;15.15;14.35;;;-1.00;99.90;;;;;;5113432;27;20198;-64
2024/01/13 07:52:56;;;;;;;15.77;14.87;;;-1.00;99.90;;;;;;5119114;27;20229;-66
2024/01/13 07:55:23;;;;;;;14.73;14.02;;;-0.90;99.90;;;;;;5117383;27;20216;-65
2024/01/13 07:57:49;;;;;;;15.07;14.27;;;-1.00;99.90;;;;;;5117522;27;20202;-66
2024/01/13 08:00:17;;;;;;;16.03;15.23;;;-1.10;99.90;;;;;;5117044;27;20205;-63
2024/01/13 08:02:43;;;;;;;15.20;14.40;;;-1.10;99.90;;;;;;5114898;28;20254;-64
2024/01/13 08:05:15;;;;;;;15.27;14.47;;;-1.10;99.90;;;;;;5116403;28;20202;-64
2024/01/13 08:07:41;;;;;;;15.73;14.93;;;-1.10;99.90;;;;;;5116955;27;20193;-65
2024/01/13 08:10:09;;;;;;;14.90;14.13;;;-1.00;99.90;;;;;;5120833;27;20193;-65
2024/01/13 08:12:36;;;;;;;15.73;14.93;;;-1.00;99.90;;;;;;5118231;28;20204;-64
2024/01/13 08:15:05;;;;;;;15.30;14.50;;;-1.10;99.90;;;;;;5110918;28;20208;-65
2024/01/13 08:17:32;;;;;;;16.37;15.47;;;-1.10;99.90;;;;;;5112717;28;20244;-64
2024/01/13 08:19:58;;;;;;;15.82;15.02;;;-1.10;99.90;;;;;;5117807;28;20210;-65
2024/01/13 08:22:26;;;;;;;15.82;15.00;;;-1.10;99.90;;;;;;5118229;28;20227;-65
2024/01/13 08:24:53;;;;;;;15.30;14.50;;;-1.10;99.90;;;;;;5114697;27;20222;-64
2024/01/13 08:27:20;;;;;;;15.07;14.17;;;-1.10;99.90;;;;;;5116149;28;20218;-64
2024/01/13 08:29:47;;;;;;;15.60;14.80;;;-1.10;99.90;;;;;;5123330;28;20232;-64
2024/01/13 08:32:13;;;;;;;14.88;14.07;;;-1.00;99.90;;;;;;5125446;28;20201;-64
2024/01/13 08:34:40;;;;;;;16.80;15.67;;;-1.00;99.90;;;;;;5131722;27;20217;-63
2024/01/13 08:37:07;;;;;;;15.13;14.35;;;-0.90;99.90;;;;;;5131181;27;20194;-65
2024/01/13 08:39:35;;;;;;;15.07;14.27;;;-0.90;99.90;;;;;;5126216;28;20205;-65
2024/01/13 08:42:02;;;;;;;14.77;14.05;;;-0.90;99.90;;;;;;5116634;28;20549;-63
2024/01/13 08:44:29;;;;;;;15.43;14.63;;;-0.80;99.90;;;;;;5124736;27;20582;-63
2024/01/13 08:46:56;;;;;;;16.70;15.77;;;-0.80;99.90;;;;;;5124232;27;20699;-63
2024/01/13 08:49:22;;;;;;;16.27;15.38;;;-0.90;99.90;;;;;;5121903;27;20205;-62
2024/01/13 08:51:49;;;;;;;15.60;14.80;;;-0.80;99.90;;;;;;5121178;27;20695;-65
2024/01/13 08:54:16;;;;;;;15.30;14.50;;;-0.80;99.90;;;;;;5122123;27;20218;-63
2024/01/13 08:56:44;;;;;;;14.63;13.90;;;-0.70;99.90;;;;;;5127503;27;20202;-64
2024/01/13 08:59:11;;;;;;;14.87;14.10;;;-0.70;99.90;;;;;;5120493;27;20206;-65
2024/01/13 09:01:38;;;;;;;15.47;14.67;;;-0.60;99.90;;;;;;5119682;27;21154;-64
2024/01/13 09:04:05;;;;;;;15.23;14.43;;;-0.50;99.90;;;;;;5115438;27;20307;-64
2024/01/13 09:06:32;;;;;;;15.60;14.80;;;-0.60;99.90;;;;;;5126388;27;20660;-64
2024/01/13 09:08:59;;;;;;;15.75;14.95;;;-0.60;99.90;;;;;;5114991;27;20198;-64
2024/01/13 09:11:26;;;;;;;15.27;14.40;;;-0.60;99.90;;;;;;5125865;27;20556;-64
2024/01/13 09:13:54;;;;;;;15.60;14.80;;;-0.70;99.90;;;;;;5122710;27;20640;-63
2024/01/13 09:16:20;;;;;;;16.13;15.23;;;-0.50;99.90;;;;;;5122394;27;20204;-64
2024/01/13 09:18:47;;;;;;;16.00;15.20;;;-0.60;99.90;;;;;;5124091;27;20206;-63
2024/01/13 09:21:17;;;;;;;16.23;15.43;;;-0.50;99.90;;;;;;5127240;27;20228;-62
2024/01/13 09:23:44;;;;;;;15.40;14.60;;;-0.40;99.90;;;;;;5123351;27;20225;-63
2024/01/13 09:26:11;;;;;;;16.45;15.65;;;-0.40;99.90;;;;;;5122665;27;20206;-65
2024/01/13 09:28:37;;;;;;;15.10;14.30;;;-0.30;99.90;;;;;;5113007;27;20198;-63
2024/01/13 09:31:06;;;;;;;15.02;14.32;;;-0.30;99.90;;;;;;5114908;27;20194;-65
2024/01/13 09:33:33;;;;;;;15.83;15.03;;;-0.30;99.90;;;;;;5116265;28;20617;-63
2024/01/13 09:35:59;;;;;;;14.80;14.00;;;-0.40;99.90;;;;;;5120873;27;20206;-64
2024/01/13 09:38:26;;;;;;;15.80;15.00;;;-0.40;99.90;;;;;;5125356;27;20281;-63
2024/01/13 09:40:53;;;;;;;14.90;14.20;;;-0.40;99.90;;;;;;5114519;27;20202;-64
2024/01/13 09:43:23;;;;;;;15.43;14.63;;;-0.40;99.90;;;;;;5121488;27;20229;-63
2024/01/13 09:45:50;;;;;;;14.23;13.53;;;-0.30;99.90;;;;;;5114260;28;20267;-64
2024/01/13 09:48:20;;;;;;;15.47;14.77;;;-0.30;99.90;;;;;;5113087;27;20194;-64
2024/01/13 09:50:51;;;;;;;15.40;14.70;;;-0.30;99.90;;;;;;5111735;27;20208;-63
2024/01/13 09:53:27;;;;;;;14.13;13.53;;;-0.20;99.90;;;;;;5119021;27;20222;-63
2024/01/13 09:55:56;;;;;;;14.67;13.93;;;-0.20;99.90;;;;;;5123581;27;20201;-65
2024/01/13 09:58:23;;;;;;;14.07;13.47;;;-0.10;99.90;;;;;;5116657;28;20210;-64
2024/01/13 10:00:53;;;;;;;13.70;13.10;;;0.00;99.90;;;;;;5118283;27;20198;-64
2024/01/13 10:03:21;;;;;;;13.83;13.23;;;0.00;99.90;;;;;;5113554;27;20253;-65
2024/01/13 10:05:51;;;;;;;13.47;12.87;;;0.00;99.90;;;;;;5117982;27;20198;-63
2024/01/13 10:08:20;;;;;;;12.95;12.35;;;0.10;99.90;;;;;;5118839;27;20194;-65
2024/01/13 10:10:47;;;;;;;13.23;12.63;;;0.10;99.90;;;;;;5119619;27;20767;-63
2024/01/13 10:13:14;;;;;;;13.00;12.40;;;0.10;99.90;;;;;;5120175;27;20225;-63
2024/01/13 10:15:40;;;;;;;13.57;12.97;;;0.20;99.90;;;;;;5113761;27;20210;-64
2024/01/13 10:18:07;;;;;;;13.43;12.82;;;0.20;99.90;;;;;;5122335;27;20240;-63
2024/01/13 10:20:36;;;;;;;13.43;12.83;;;0.20;99.90;;;;;;5114652;27;20208;-64
2024/01/13 10:23:03;;;;;;;14.00;13.40;;;0.10;99.90;;;;;;5109500;27;20229;-64
2024/01/13 10:25:30;;;;;;;14.17;13.47;;;0.20;99.90;;;;;;5114119;27;20233;-63
2024/01/13 10:27:58;;;;;;;13.93;13.27;;;0.20;99.90;;;;;;5112908;27;20298;-62
2024/01/13 10:30:25;;;;;;;15.20;14.50;;;0.30;99.90;;;;;;5115855;27;20583;-63
2024/01/13 10:32:52;;;;;;;14.23;13.63;;;0.30;99.90;;;;;;5114147;27;20429;-62
2024/01/13 10:35:21;;;;;;;14.10;13.47;;;0.20;99.90;;;;;;5113284;27;20205;-60
2024/01/13 10:37:49;;;;;;;14.40;13.70;;;0.20;99.90;;;;;;5114130;27;20232;-64
2024/01/13 10:40:16;;;;;;;13.83;13.23;;;0.20;99.90;;;;;;5119069;27;20202;-64
2024/01/13 10:42:46;;;;;;;14.67;13.97;;;0.30;99.90;;;;;;5113750;28;20221;-64
2024/01/13 10:45:16;;;;;;;13.67;13.07;;;0.30;99.90;;;;;;5112206;28;20235;-64
2024/01/13 10:47:49;;;;;;;15.77;14.97;;;0.30;99.90;;;;;;5112623;27;20206;-63
2024/01/13 10:50:16;;;;;;;14.93;14.23;;;0.20;99.90;;;;;;5113958;27;20216;-63
2024/01/13 10:52:58;;;;;;;15.20;14.50;;;0.30;99.90;;;;;;5115561;27;20297;-63
2024/01/13 10:55:25;;;;;;;14.20;13.60;;;0.30;99.90;;;;;;5109448;28;20205;-64
2024/01/13 10:57:53;;;;;;;14.90;14.20;;;0.30;99.90;;;;;;5123337;27;20222;-68
2024/01/13 11:00:21;;;;;;;14.63;13.93;;;0.20;99.90;;;;;;5114071;27;20262;-64
2024/01/13 11:02:48;;;;;;;14.47;13.77;;;0.30;99.90;;;;;;5115010;27;20715;-64
2024/01/13 11:05:16;;;;;;;15.97;15.17;;;0.30;99.90;;;;;;5114913;27;20202;-64
2024/01/13 11:07:42;;;;;;;15.23;14.53;;;0.30;99.90;;;;;;5111489;27;20303;-65
2024/01/13 11:10:15;;;;;;;15.40;14.70;;;0.30;99.90;;;;;;5109917;27;20206;-63
2024/01/13 11:12:48;;;;;;;15.23;14.47;;;0.40;99.90;;;;;;5121303;27;20202;-65
2024/01/13 11:15:18;;;;;;;14.97;14.27;;;0.40;99.90;;;;;;5119611;27;20460;-64
2024/01/13 11:17:47;;;;;;;17.37;16.37;;;0.30;99.90;;;;;;5114444;27;20236;-63
2024/01/13 11:20:17;;;;;;;16.00;15.20;;;0.20;99.90;;;;;;5118699;27;20247;-64
2024/01/13 11:22:57;;;;;;;15.57;14.77;;;0.20;99.90;;;;;;5120169;27;20278;-64
2024/01/13 11:25:26;;;;;;;14.63;13.93;;;0.30;99.90;;;;;;5115773;28;20206;-63
2024/01/13 11:28:00;;;;;;;17.63;16.73;;;0.40;99.90;;;;;;5119326;27;20210;-64
2024/01/13 11:30:30;;;;;;;15.88;15.07;;;0.50;99.90;;;;;;5129724;27;20206;-64
2024/01/13 11:32:56;;;;;;;16.45;15.65;;;0.40;99.90;;;;;;5136306;27;20257;-63
2024/01/13 11:35:23;;;;;;;15.00;14.30;;;0.40;99.90;;;;;;5122437;27;20406;-64
2024/01/13 11:37:54;;;;;;;15.67;14.87;;;0.50;99.90;;;;;;5117078;27;20209;-64
2024/01/13 11:40:21;;;;;;;15.17;14.37;;;0.60;99.90;;;;;;5123085;27;20551;-62
2024/01/13 11:42:58;;;;;;;16.03;15.23;;;0.60;99.90;;;;;;5115513;27;20626;-64
2024/01/13 11:45:35;;;;;;;15.57;14.70;;;0.50;99.90;;;;;;5112246;27;20197;-64
2024/01/13 11:48:35;;;;;;;15.30;14.60;;;0.60;99.90;;;;;;5115262;27;20226;-63
2024/01/13 11:51:08;;;;;;;14.70;14.00;;;0.70;99.90;;;;;;5113730;27;20716;-63
2024/01/13 11:53:36;;;;;;;14.70;14.00;;;0.70;99.90;;;;;;5114172;27;20222;-64
2024/01/13 11:56:04;;;;;;;14.60;13.90;;;0.70;99.90;;;;;;5115612;27;20657;-64
2024/01/13 11:58:34;;;;;;;13.65;13.05;;;0.70;99.90;;;;;;5115536;27;20230;-64
2024/01/13 12:01:01;;;;;;;13.65;13.02;;;0.70;99.90;;;;;;5113049;28;20217;-65
2024/01/13 12:03:28;;;;;;;14.33;13.63;;;0.80;99.90;;;;;;5114971;27;20319;-63
2024/01/13 12:05:55;;;;;;;14.90;14.17;;;0.90;99.90;;;;;;5116892;28;20235;-64
2024/01/13 12:08:25;;;;;;;15.70;14.90;;;0.80;99.90;;;;;;5110769;28;20198;-63
2024/01/13 12:10:53;;;;;;;16.27;15.47;;;0.60;99.90;;;;;;5117951;27;20567;-63
2024/01/13 12:13:21;;;;;;;17.13;16.27;;;0.50;99.90;;;;;;5112034;27;20274;-64
2024/01/13 12:15:49;;;;;;;17.70;16.80;;;0.40;99.90;;;;;;5116343;28;20198;-63
2024/01/13 12:18:21;;;;;;;17.57;16.67;;;0.20;99.90;;;;;;5115108;27;20217;-63
2024/01/13 12:20:48;;;;;;;16.87;15.97;;;0.20;99.90;;;;;;5117281;27;20201;-64
2024/01/13 12:23:16;;;;;;;17.20;16.30;;;0.20;99.90;;;;;;5122628;27;20253;-66
2024/01/13 12:25:42;;;;;;;18.33;17.43;;;0.20;99.90;;;;;;5119701;27;20201;-64
2024/01/13 12:28:10;;;;;;;17.13;16.23;;;0.10;99.90;;;;;;5120984;27;20201;-65
2024/01/13 12:30:38;;;;;;;17.00;16.17;;;0.00;99.90;;;;;;5119407;27;20202;-64